Time;durP1;ratioP1;P1;durP2;ratioP2;P2;SDS_P1;SDS_P2;PMS_P1;PMS_P2;Temp;Humidity;BMP_temperature;BMP_pressure;BME280_temperature;BME280_humidity;BME280_pressure;Samples;Min_cycle;Max_cycle;Signal;HPM_P1;HPM_P2
2023/10/18 00:02:52;;;;;;;2.83;2.10;;;;;;;15.52;42.39;100955.50;4974043;28;20046;-57
2023/10/18 00:05:20;;;;;;;3.30;1.95;;;;;;;15.48;41.56;100960.34;4940728;28;20466;-57
2023/10/18 00:07:49;;;;;;;3.95;2.33;;;;;;;15.47;41.09;100960.50;4956888;28;20462;-57
2023/10/18 00:10:17;;;;;;;5.25;2.22;;;;;;;15.44;41.15;100956.22;4973853;28;20055;-56
2023/10/18 00:12:44;;;;;;;4.53;1.98;;;;;;;15.44;42.22;100950.81;4956167;28;20049;-56
2023/10/18 00:15:11;;;;;;;4.65;2.15;;;;;;;15.43;41.26;100949.16;4956350;28;20031;-57
2023/10/18 00:17:37;;;;;;;4.35;2.28;;;;;;;15.43;41.16;100943.75;4974026;28;20035;-56
2023/10/18 00:20:06;;;;;;;2.67;1.92;;;;;;;15.43;42.00;100941.06;4940679;28;20061;-56
2023/10/18 00:22:32;;;;;;;3.60;2.03;;;;;;;15.43;42.11;100940.19;4956503;28;20474;-57
2023/10/18 00:24:57;;;;;;;2.40;2.20;;;;;;;15.41;42.02;100939.53;4973939;28;20066;-57
2023/10/18 00:27:25;;;;;;;4.57;2.30;;;;;;;15.40;41.16;100937.81;4956275;28;20047;-57
2023/10/18 00:29:53;;;;;;;3.22;2.17;;;;;;;15.42;41.07;100942.06;4973768;28;20053;-57
2023/10/18 00:32:20;;;;;;;4.05;2.35;;;;;;;15.40;41.64;100938.66;4956863;28;20022;-57
2023/10/18 00:34:45;;;;;;;3.63;2.20;;;;;;;15.39;41.57;100931.56;4940278;28;20212;-57
2023/10/18 00:37:11;;;;;;;3.28;2.17;;;;;;;15.38;41.59;100937.97;4973430;28;20575;-57
2023/10/18 00:39:39;;;;;;;4.05;2.05;;;;;;;15.37;40.85;100933.59;4955299;28;20117;-57
2023/10/18 00:44:55;;;;;;;4.00;2.13;;;;;;;15.29;42.38;100930.81;4972617;28;20082;-57
2023/10/18 00:47:22;;;;;;;4.50;2.35;;;;;;;15.26;41.69;100920.34;4957293;28;20123;-56
2023/10/18 00:49:52;;;;;;;3.67;2.33;;;;;;;15.21;40.97;100902.94;4956268;28;20541;-56
2023/10/18 00:52:23;;;;;;;3.53;1.80;;;;;;;15.26;41.95;100917.66;4957021;28;20042;-56
2023/10/18 00:54:49;;;;;;;3.80;2.00;;;;;;;15.26;41.07;100912.25;4956756;28;20031;-57
2023/10/18 00:57:20;;;;;;;3.08;2.47;;;;;;;15.28;42.88;100909.38;4973527;28;20555;-57
2023/10/18 00:59:46;;;;;;;6.90;2.50;;;;;;;15.26;42.50;100890.66;4956707;28;20093;-57
2023/10/18 01:02:14;;;;;;;4.05;2.55;;;;;;;15.27;42.49;100891.50;4973411;28;20034;-57
2023/10/18 01:04:40;;;;;;;3.45;1.98;;;;;;;15.29;41.64;100895.75;4956322;28;20042;-56
2023/10/18 01:07:16;;;;;;;5.38;2.13;;;;;;;15.29;41.41;100884.94;4939875;28;20035;-57
2023/10/18 01:09:47;;;;;;;4.93;2.00;;;;;;;15.29;42.65;100886.78;4941252;28;20030;-57
2023/10/18 01:12:14;;;;;;;4.78;2.10;;;;;;;15.28;41.14;100880.53;4973761;28;20039;-57
2023/10/18 01:14:40;;;;;;;6.20;2.88;;;;;;;15.26;42.06;100870.91;4956327;28;20039;-57
2023/10/18 01:17:07;;;;;;;7.20;2.20;;;;;;;15.25;42.56;100864.66;4955735;28;20031;-57
2023/10/18 01:19:33;;;;;;;3.22;2.08;;;;;;;15.27;41.87;100868.03;4955801;28;20503;-56
2023/10/18 01:21:58;;;;;;;2.67;1.92;;;;;;;15.28;41.96;100863.50;4976192;28;20110;-56
2023/10/18 01:24:29;;;;;;;4.00;1.58;;;;;;;15.26;41.28;100866.38;4976622;28;20150;-57
2023/10/18 01:26:57;;;;;;;11.52;2.53;;;;;;;15.26;42.66;100854.72;4959778;28;20053;-57
2023/10/18 01:29:22;;;;;;;4.03;2.42;;;;;;;15.24;42.47;100852.19;4959335;28;20402;-57
2023/10/18 01:31:49;;;;;;;2.63;1.80;;;;;;;15.26;42.82;100852.03;4976556;28;20033;-57
2023/10/18 01:34:15;;;;;;;6.07;2.17;;;;;;;15.28;42.97;100856.25;4959737;28;20098;-57
2023/10/18 01:36:40;;;;;;;3.75;2.70;;;;;;;15.26;41.49;100849.31;4959141;28;20471;-57
2023/10/18 01:39:18;;;;;;;4.18;2.35;;;;;;;15.19;42.75;100832.09;4976643;28;20027;-57
2023/10/18 01:41:51;;;;;;;5.03;2.60;;;;;;;15.24;42.88;100841.41;4944680;28;20078;-57
2023/10/18 01:44:18;;;;;;;5.35;2.38;;;;;;;15.22;41.69;100834.44;4976593;28;20062;-57
2023/10/18 01:46:48;;;;;;;2.60;2.08;;;;;;;15.21;42.88;100830.91;4959697;28;20093;-57
2023/10/18 01:49:19;;;;;;;3.25;1.65;;;;;;;15.23;41.33;100831.59;4960158;28;20509;-57
2023/10/18 01:51:46;;;;;;;3.53;2.15;;;;;;;15.21;42.45;100825.53;4960769;28;20042;-60
2023/10/18 01:54:15;;;;;;;2.72;1.90;;;;;;;15.20;42.79;100821.13;4961042;28;20475;-57
2023/10/18 01:56:46;;;;;;;2.47;2.13;;;;;;;15.20;43.18;100818.41;4961270;28;20035;-57
2023/10/18 01:59:17;;;;;;;4.03;2.00;;;;;;;15.17;41.49;100818.75;4976604;28;20126;-57
2023/10/18 02:01:51;;;;;;;2.33;2.13;;;;;;;15.18;42.85;100815.03;4960010;28;20078;-56
2023/10/18 02:04:59;;;;;;;2.55;2.10;;;;;;;15.17;43.07;100816.03;4977359;28;20022;-57
2023/10/18 02:07:07;;;;;;;5.30;2.03;;;;;;;15.17;42.11;100813.34;4956691;28;20458;-57
2023/10/18 02:09:36;;;;;;;2.60;1.77;;;;;;;15.14;42.62;100806.41;4958879;28;20386;-57
2023/10/18 02:12:08;;;;;;;2.38;1.67;;;;;;;15.13;42.52;100809.28;4958229;28;20491;-57
2023/10/18 02:14:33;;;;;;;3.42;1.90;;;;;;;15.11;41.83;100809.44;4976067;28;20418;-57
2023/10/18 02:17:05;;;;;;;4.82;2.15;;;;;;;15.08;42.91;100808.88;4975834;28;20039;-60
2023/10/18 02:19:31;;;;;;;6.80;2.40;;;;;;;15.05;42.89;100787.63;4975970;28;20127;-57
2023/10/18 02:21:58;;;;;;;2.72;1.73;;;;;;;15.07;41.96;100804.53;4958500;28;20047;-56
2023/10/18 02:24:23;;;;;;;5.45;1.92;;;;;;;15.04;42.90;100796.75;4975584;28;20050;-56
2023/10/18 02:27:00;;;;;;;3.53;1.98;;;;;;;15.05;42.43;100809.19;4942359;28;20072;-56
2023/10/18 02:29:27;;;;;;;3.47;1.95;;;;;;;15.02;42.43;100809.50;4959810;28;20035;-57
2023/10/18 02:31:56;;;;;;;6.78;2.05;;;;;;;14.99;42.96;100801.78;4941476;28;20077;-56
2023/10/18 02:34:24;;;;;;;3.30;2.20;;;;;;;15.01;43.05;100799.75;4959248;28;20031;-56
2023/10/18 02:36:51;;;;;;;3.22;2.13;;;;;;;15.02;42.42;100798.72;4958992;28;20085;-57
2023/10/18 02:39:22;;;;;;;3.80;2.03;;;;;;;15.00;43.17;100789.97;4975483;28;20090;-57
2023/10/18 02:41:49;;;;;;;4.45;1.60;;;;;;;14.99;41.82;100783.72;4975560;28;20035;-56
2023/10/18 02:44:21;;;;;;;4.53;2.25;;;;;;;14.98;42.40;100775.78;4958225;28;20118;-57
2023/10/18 02:47:08;;;;;;;5.15;1.75;;;;;;;14.95;43.24;100770.72;4958990;28;20380;-56
2023/10/18 02:49:34;;;;;;;6.18;2.10;;;;;;;14.94;42.80;100775.25;4959689;28;20034;-57
2023/10/18 02:52:02;;;;;;;3.88;2.10;;;;;;;14.94;43.27;100769.00;4975845;28;20031;-59
2023/10/18 02:54:28;;;;;;;5.18;2.45;;;;;;;14.91;42.06;100764.78;4958361;28;20097;-57
2023/10/18 02:56:54;;;;;;;2.58;1.92;;;;;;;14.91;43.54;100758.53;4975422;28;20031;-57
2023/10/18 02:59:21;;;;;;;4.18;2.20;;;;;;;14.89;43.45;100761.41;4957499;28;20114;-57
2023/10/18 03:01:49;;;;;;;2.03;1.80;;;;;;;14.88;43.53;100751.59;4958233;28;20042;-57
2023/10/18 03:04:23;;;;;;;2.15;1.55;;;;;;;14.88;43.16;100748.09;4958185;28;20113;-57
2023/10/18 03:06:52;;;;;;;7.13;2.03;;;;;;;14.85;42.24;100748.41;4959059;28;20041;-56
2023/10/18 03:11:54;;;;;;;4.97;1.98;;;;;;;14.81;42.13;100742.47;4974098;28;20085;-58
2023/10/18 03:14:39;;;;;;;2.53;1.63;;;;;;;14.77;43.08;100733.00;4974075;28;20380;-57
2023/10/18 03:18:05;;;;;;;3.05;1.75;;;;;;;14.77;42.52;100734.88;4959671;28;20131;-56
2023/10/18 03:20:02;;;;;;;3.08;1.85;;;;;;;14.75;42.25;100729.63;4957509;28;20047;-56
2023/10/18 03:22:31;;;;;;;2.45;1.70;;;;;;;14.72;43.05;100721.00;4942350;28;20043;-56
2023/10/18 03:24:59;;;;;;;6.53;2.03;;;;;;;14.72;42.23;100721.00;4974844;28;20034;-58
2023/10/18 03:27:30;;;;;;;2.95;1.77;;;;;;;14.70;43.17;100713.06;4941483;28;20510;-57
2023/10/18 03:29:59;;;;;;;2.92;1.45;;;;;;;14.69;42.04;100710.53;4958195;28;20035;-57
2023/10/18 03:32:25;;;;;;;2.90;1.90;;;;;;;14.65;42.81;100710.00;4956795;28;20518;-58
2023/10/18 03:34:53;;;;;;;2.70;1.88;;;;;;;14.63;42.45;100701.22;4957004;28;20045;-57
2023/10/18 03:37:21;;;;;;;1.92;1.50;;;;;;;14.58;43.32;100707.09;4941395;28;20062;-57
2023/10/18 03:39:53;;;;;;;4.65;1.70;;;;;;;14.55;42.55;100698.47;4957540;28;20498;-57
2023/10/18 03:42:33;;;;;;;3.10;1.73;;;;;;;14.51;44.03;100694.41;4958061;28;20070;-58
2023/10/18 03:45:10;;;;;;;6.70;2.03;;;;;;;14.48;42.78;100687.50;4956983;28;20458;-58
2023/10/18 03:47:36;;;;;;;3.55;1.70;;;;;;;14.52;42.58;100690.69;4974350;28;20042;-58
2023/10/18 03:50:08;;;;;;;3.00;1.70;;;;;;;14.51;42.43;100692.56;4974729;28;20029;-57
2023/10/18 03:52:33;;;;;;;2.38;1.95;;;;;;;14.52;43.18;100688.84;4919799;28;20151;-58
2023/10/18 03:55:10;;;;;;;3.45;1.73;;;;;;;14.50;42.96;100685.47;4974568;28;20041;-58
2023/10/18 03:57:39;;;;;;;3.92;1.63;;;;;;;14.49;42.35;100678.38;4974496;28;20046;-57
2023/10/18 04:00:28;;;;;;;5.88;2.08;;;;;;;14.50;43.32;100679.22;4974210;28;20050;-57
2023/10/18 04:02:56;;;;;;;5.47;2.17;;;;;;;14.52;42.63;100679.91;4973001;28;20553;-58
2023/10/18 04:08:07;;;;;;;4.32;1.65;;;;;;;14.47;43.33;100650.75;4974657;28;20037;-57
2023/10/18 04:10:36;;;;;;;4.10;2.05;;;;;;;14.55;43.36;100664.28;4957443;28;20035;-58
2023/10/18 04:13:03;;;;;;;2.75;1.55;;;;;;;14.57;43.18;100664.97;4941699;28;20446;-57
2023/10/18 04:15:34;;;;;;;2.92;2.08;;;;;;;14.60;42.65;100665.66;4974246;28;20398;-60
2023/10/18 04:18:11;;;;;;;4.40;1.75;;;;;;;14.63;42.74;100674.25;4957068;28;20058;-58
2023/10/18 04:20:37;;;;;;;4.50;1.88;;;;;;;14.65;42.31;100660.63;4957341;28;20038;-58
2023/10/18 04:23:14;;;;;;;4.88;1.50;;;;;;;14.69;43.70;100659.28;4956835;28;20039;-58
2023/10/18 04:25:40;;;;;;;6.55;1.90;;;;;;;14.70;43.55;100648.38;4959136;28;20551;-57
2023/10/18 04:28:06;;;;;;;3.75;1.48;;;;;;;14.71;42.22;100657.31;4941439;28;20062;-57
2023/10/18 04:30:36;;;;;;;9.85;1.70;;;;;;;14.73;44.01;100647.19;4941769;28;20042;-58
2023/10/18 04:35:45;;;;;;;2.80;1.70;;;;;;;14.78;42.36;100644.84;4975077;28;20085;-58
2023/10/18 04:38:23;;;;;;;4.03;1.80;;;;;;;14.79;43.86;100636.63;4925759;28;20034;-57
2023/10/18 04:41:08;;;;;;;4.53;1.83;;;;;;;14.80;43.93;100637.44;4974620;28;20035;-58
2023/10/18 04:43:34;;;;;;;4.80;2.20;;;;;;;14.80;43.34;100637.44;4959434;28;20039;-57
2023/10/18 04:46:02;;;;;;;2.38;1.15;;;;;;;14.80;43.75;100627.50;4941201;28;20038;-57
2023/10/18 04:51:26;;;;;;;2.65;2.40;;;;;;;14.79;42.67;100625.00;4974212;28;20070;-57
2023/10/18 04:53:54;;;;;;;7.05;2.08;;;;;;;14.79;42.80;100616.91;4959522;28;20055;-57
2023/10/18 04:56:19;;;;;;;3.05;1.92;;;;;;;14.77;42.70;100611.66;4958733;28;20130;-57
2023/10/18 04:58:45;;;;;;;3.78;1.80;;;;;;;14.77;42.28;100608.97;4960826;28;20045;-58
2023/10/18 05:01:13;;;;;;;3.05;1.90;;;;;;;14.74;42.41;100601.19;4960943;28;20042;-57
2023/10/18 05:03:44;;;;;;;2.38;2.08;;;;;;;14.71;43.90;100601.53;4961218;28;20039;-58
2023/10/18 05:06:11;;;;;;;3.38;1.73;;;;;;;14.66;42.82;100586.81;4977159;28;20038;-57
2023/10/18 05:08:36;;;;;;;4.38;2.03;;;;;;;14.69;43.85;100594.59;4977171;28;20086;-58
2023/10/18 05:13:48;;;;;;;5.07;1.65;;;;;;;14.68;43.53;100592.91;4977125;28;20110;-58
2023/10/18 05:16:13;;;;;;;2.75;1.42;;;;;;;14.61;42.26;100578.38;4977123;28;20055;-57
2023/10/18 05:18:38;;;;;;;3.05;1.60;;;;;;;14.68;43.82;100590.22;4959885;28;20533;-58
2023/10/18 05:21:10;;;;;;;4.28;1.65;;;;;;;14.67;44.16;100588.53;4944789;28;20129;-58
2023/10/18 05:23:36;;;;;;;2.50;1.90;;;;;;;14.68;44.06;100579.44;4961438;28;20050;-57
2023/10/18 05:28:49;;;;;;;6.00;2.47;;;;;;;14.67;43.52;100583.13;4959691;28;20038;-58
2023/10/18 05:34:20;;;;;;;5.55;1.60;;;;;;;14.66;42.86;100579.59;4898388;29;20043;-60
2023/10/18 05:41:59;;;;;;;3.75;1.70;;;;;;;14.65;42.87;100579.75;4961915;28;20058;-57
2023/10/18 05:44:24;;;;;;;;;;;;;;;14.64;42.66;100580.75;4961088;28;20078;-57
2023/10/18 05:46:51;;;;;;;3.00;2.05;;;;;;;14.62;43.68;100566.59;4976650;28;20329;-58
2023/10/18 05:49:23;;;;;;;4.63;2.00;;;;;;;14.61;43.75;100562.22;4959195;28;20121;-58
2023/10/18 05:51:51;;;;;;;9.38;2.03;;;;;;;14.60;42.98;100560.53;4944002;28;20071;-57
2023/10/18 05:54:21;;;;;;;5.82;2.38;;;;;;;14.57;42.99;100561.72;4976398;28;20034;-58
2023/10/18 05:56:49;;;;;;;4.22;1.65;;;;;;;14.57;43.31;100562.53;4959277;28;20146;-57
2023/10/18 06:01:48;;;;;;;5.72;2.00;;;;;;;14.53;44.28;100552.25;4976474;28;20494;-57
2023/10/18 06:04:15;;;;;;;4.43;1.98;;;;;;;14.51;44.13;100547.03;4958812;28;20041;-58
2023/10/18 06:06:43;;;;;;;3.50;1.77;;;;;;;14.51;44.04;100547.03;4943617;28;20563;-57
2023/10/18 06:09:11;;;;;;;2.63;2.05;;;;;;;14.48;43.79;100531.19;4976584;28;20039;-58
2023/10/18 06:11:37;;;;;;;4.22;1.65;;;;;;;14.50;42.96;100534.53;4959948;28;20062;-58
2023/10/18 06:14:08;;;;;;;5.13;1.92;;;;;;;14.46;43.58;100527.78;4959075;28;20035;-58
2023/10/18 06:16:34;;;;;;;5.25;2.20;;;;;;;14.48;44.22;100520.41;4975966;28;20031;-58
2023/10/18 06:19:07;;;;;;;3.22;1.85;;;;;;;14.49;43.91;100522.06;4957654;28;20039;-57
2023/10/18 06:21:46;;;;;;;2.45;2.00;;;;;;;14.50;43.24;100528.31;4975940;28;20061;-57
2023/10/18 06:24:12;;;;;;;2.20;1.98;;;;;;;14.48;44.30;100525.78;4975603;28;20039;-58
2023/10/18 06:26:41;;;;;;;8.05;2.60;;;;;;;14.54;43.06;100530.50;4957190;28;20038;-59
2023/10/18 06:29:11;;;;;;;11.07;2.65;;;;;;;14.53;43.18;100523.44;4959303;28;20035;-58
2023/10/18 06:31:42;;;;;;;6.40;2.03;;;;;;;14.56;43.56;100514.19;4975794;28;20081;-57
2023/10/18 06:34:15;;;;;;;4.70;2.05;;;;;;;14.57;44.16;100516.69;4959207;28;20031;-58
2023/10/18 06:36:41;;;;;;;3.55;2.22;;;;;;;14.61;44.07;100513.69;4975710;28;20043;-58
2023/10/18 06:39:06;;;;;;;4.63;2.22;;;;;;;14.63;43.05;100509.00;4975586;28;20038;-58
2023/10/18 06:41:32;;;;;;;4.15;2.20;;;;;;;14.66;43.46;100511.34;4975391;28;20034;-58
2023/10/18 06:44:00;;;;;;;4.05;2.20;;;;;;;14.68;43.10;100504.81;4958000;28;20163;-57
2023/10/18 06:46:32;;;;;;;6.85;2.45;;;;;;;14.71;44.18;100517.09;4958670;28;20039;-58
2023/10/18 06:48:58;;;;;;;3.45;2.58;;;;;;;14.73;43.96;100496.22;4944391;28;20035;-59
2023/10/18 06:51:30;;;;;;;4.10;2.35;;;;;;;14.78;43.45;100510.88;4959334;28;20122;-58
2023/10/18 06:54:06;;;;;;;5.82;2.25;;;;;;;14.82;44.03;100497.94;4976244;28;20085;-58
2023/10/18 06:56:33;;;;;;;3.80;2.58;;;;;;;14.88;44.51;100495.41;4950684;28;20045;-58
2023/10/18 06:59:06;;;;;;;7.43;2.53;;;;;;;14.95;42.58;100501.84;4975082;28;20122;-57
2023/10/18 07:01:32;;;;;;;8.43;2.65;;;;;;;14.99;43.99;100505.06;4959339;28;20399;-58
2023/10/18 07:03:57;;;;;;;5.18;2.45;;;;;;;15.03;43.11;100503.69;4975427;28;20037;-58
2023/10/18 07:06:29;;;;;;;5.00;2.40;;;;;;;15.06;43.85;100497.97;4941794;28;20490;-57
2023/10/18 07:08:55;;;;;;;3.35;2.22;;;;;;;15.11;44.13;100501.88;4974999;28;20086;-58
2023/10/18 07:11:23;;;;;;;6.20;2.65;;;;;;;15.16;44.13;100496.81;4941613;28;20054;-58
2023/10/18 07:13:50;;;;;;;4.55;2.05;;;;;;;15.20;43.79;100488.38;4941674;28;20123;-58
2023/10/18 07:19:21;;;;;;;6.82;3.78;;;;;;;15.28;42.99;100486.53;4959327;28;20051;-58
2023/10/18 07:21:46;;;;;;;4.40;2.67;;;;;;;15.35;43.79;100481.31;4974614;28;20031;-58
2023/10/18 07:24:12;;;;;;;6.72;2.90;;;;;;;15.44;43.80;100474.88;4957040;28;20050;-58
2023/10/18 07:26:39;;;;;;;4.00;2.33;;;;;;;15.51;43.72;100476.78;4941608;28;20082;-58
2023/10/18 07:29:06;;;;;;;5.55;2.75;;;;;;;15.58;44.05;100476.94;4974623;28;20034;-58
2023/10/18 07:31:38;;;;;;;3.88;2.30;;;;;;;15.60;43.03;100472.22;4957542;28;20103;-57
2023/10/18 07:34:17;;;;;;;6.07;2.90;;;;;;;15.67;43.46;100476.78;4957627;28;20039;-57
2023/10/18 07:36:44;;;;;;;5.03;2.38;;;;;;;15.73;43.89;100465.28;4974016;28;20035;-58
2023/10/18 07:39:11;;;;;;;3.78;2.47;;;;;;;15.83;42.80;100465.09;4956947;28;20061;-57
2023/10/18 07:41:37;;;;;;;3.53;2.58;;;;;;;15.92;43.06;100460.50;4957420;28;20030;-57
2023/10/18 07:44:05;;;;;;;3.88;2.45;;;;;;;16.02;43.59;100461.19;4957034;28;20027;-57
2023/10/18 07:46:34;;;;;;;4.18;2.33;;;;;;;16.08;42.26;100452.38;4957327;28;20014;-57
2023/10/18 07:49:15;;;;;;;3.13;2.20;;;;;;;16.16;43.24;100453.16;4956837;28;20026;-58
2023/10/18 07:51:59;;;;;;;7.50;2.75;;;;;;;16.21;42.35;100452.66;4973158;28;20030;-57
2023/10/18 07:54:24;;;;;;;3.88;2.70;;;;;;;16.39;42.50;100442.44;4959642;28;20070;-58
2023/10/18 07:56:49;;;;;;;4.03;2.58;;;;;;;16.58;41.99;100431.22;4973995;28;20061;-58
2023/10/18 07:59:28;;;;;;;3.13;2.20;;;;;;;16.77;42.63;100435.34;4974231;28;20256;-57
2023/10/18 08:02:07;;;;;;;3.88;2.40;;;;;;;16.83;42.71;100427.34;4958244;28;20041;-58
2023/10/18 08:04:36;;;;;;;5.00;3.03;;;;;;;16.83;43.08;100427.34;4974013;28;20039;-58
2023/10/18 08:07:10;;;;;;;4.30;2.50;;;;;;;16.83;41.83;100427.34;4974039;28;20549;-57
2023/10/18 08:09:39;;;;;;;2.78;2.47;;;;;;;16.89;42.56;100426.63;4957254;28;20063;-58
2023/10/18 08:12:08;;;;;;;4.22;2.95;;;;;;;16.98;42.17;100421.16;4974024;28;20027;-58
2023/10/18 08:14:34;;;;;;;6.82;2.47;;;;;;;17.13;42.32;100422.06;4973940;28;20038;-58
2023/10/18 08:17:08;;;;;;;11.45;2.72;;;;;;;17.29;41.54;100419.22;4973881;28;20058;-58
2023/10/18 08:19:43;;;;;;;6.28;2.95;;;;;;;17.67;41.44;100415.50;4973835;28;20038;-57
2023/10/18 08:22:22;;;;;;;9.00;3.05;;;;;;;17.97;41.31;100411.81;4941565;28;20482;-58
2023/10/18 08:24:50;;;;;;;4.65;2.75;;;;;;;18.14;41.43;100407.03;4958073;28;20126;-58
2023/10/18 08:27:16;;;;;;;6.18;2.47;;;;;;;18.18;41.09;100399.34;4940761;28;20035;-58
2023/10/18 08:29:42;;;;;;;4.25;2.70;;;;;;;18.25;41.65;100394.84;4956269;28;20046;-57
2023/10/18 08:32:16;;;;;;;4.80;3.10;;;;;;;18.39;41.32;100396.69;4956132;28;20031;-58
2023/10/18 08:34:43;;;;;;;7.63;3.15;;;;;;;18.58;41.10;100401.53;4957638;28;20061;-62
2023/10/18 08:37:13;;;;;;;5.30;2.60;;;;;;;18.82;40.57;100393.03;4956161;28;20057;-57
2023/10/18 08:39:55;;;;;;;4.85;2.80;;;;;;;19.04;40.53;100383.84;4956610;28;20034;-58
2023/10/18 08:42:32;;;;;;;6.45;3.45;;;;;;;19.23;40.73;100384.25;4973758;28;20033;-58
2023/10/18 08:45:03;;;;;;;9.25;3.08;;;;;;;19.40;40.15;100377.53;4957081;28;20057;-58
2023/10/18 08:47:29;;;;;;;6.97;3.10;;;;;;;19.44;40.07;100370.66;4957312;28;20051;-58
2023/10/18 08:49:56;;;;;;;4.75;2.88;;;;;;;19.58;40.06;100375.13;4956171;28;20542;-58
2023/10/18 08:52:28;;;;;;;6.07;3.05;;;;;;;19.81;39.33;100370.28;4973272;28;20043;-57
2023/10/18 08:54:55;;;;;;;4.88;2.95;;;;;;;20.00;39.48;100369.53;4956149;28;20039;-57
2023/10/18 08:57:34;;;;;;;4.72;3.35;;;;;;;20.21;39.79;100360.44;4956123;28;20031;-58
2023/10/18 09:02:51;;;;;;;7.07;3.65;;;;;;;20.48;39.11;100355.97;4973436;28;20517;-58
2023/10/18 09:05:20;;;;;;;6.10;3.10;;;;;;;20.58;38.68;100350.94;4973163;28;20101;-58
2023/10/18 09:07:46;;;;;;;4.43;2.67;;;;;;;20.78;38.88;100340.94;4973234;28;20031;-58
2023/10/18 09:15:48;;;;;;;5.78;3.00;;;;;;;21.75;37.78;100322.06;4956033;28;20034;-58
2023/10/18 09:18:13;;;;;;;5.75;3.35;;;;;;;21.84;37.03;100307.13;4959002;28;20047;-59
2023/10/18 09:20:39;;;;;;;6.95;2.70;;;;;;;21.81;37.83;100321.19;4973187;28;20101;-58
2023/10/18 09:23:05;;;;;;;4.82;2.55;;;;;;;21.95;37.10;100310.06;4939513;28;20074;-58
2023/10/18 09:25:49;;;;;;;3.40;2.92;;;;;;;22.28;36.51;100307.19;4973158;28;20474;-58
2023/10/18 09:28:32;;;;;;;6.45;2.80;;;;;;;22.58;37.13;100302.81;4958530;28;20451;-58
2023/10/18 09:31:19;;;;;;;;;;;;;;;22.95;37.25;100294.78;4957867;28;20037;-58
2023/10/18 09:33:58;;;;;;;4.50;2.50;;;;;;;23.31;36.04;100308.56;4970752;28;19964;-58
2023/10/18 09:36:24;;;;;;;5.05;2.55;;;;;;;23.43;36.25;100295.03;4957685;28;20066;-58
2023/10/18 09:38:59;;;;;;;9.82;3.38;;;;;;;23.53;35.95;100285.25;4956032;28;20503;-58
2023/10/18 09:41:30;;;;;;;6.63;2.65;;;;;;;23.62;36.02;100300.28;4955997;28;20049;-58
2023/10/18 09:44:00;;;;;;;5.20;2.60;;;;;;;23.48;36.12;100290.56;4959292;28;20042;-58
2023/10/18 09:46:26;;;;;;;4.90;2.58;;;;;;;22.95;36.41;100275.66;4976401;28;20031;-58
2023/10/18 09:48:52;;;;;;;7.95;3.03;;;;;;;22.55;37.34;100269.66;4959126;28;20411;-58
2023/10/18 09:51:21;;;;;;;4.65;2.72;;;;;;;22.29;36.82;100269.81;4943120;28;20035;-57
2023/10/18 09:53:50;;;;;;;3.75;2.60;;;;;;;22.11;37.04;100258.81;4976146;28;20495;-58
2023/10/18 09:56:24;;;;;;;5.95;3.17;;;;;;;22.05;36.64;100255.06;4958852;28;20035;-58
2023/10/18 09:58:51;;;;;;;5.00;3.00;;;;;;;22.14;36.50;100250.19;4959194;28;20035;-58
2023/10/18 10:01:26;;;;;;;6.38;3.38;;;;;;;22.46;36.99;100255.44;4958911;28;20053;-58
2023/10/18 10:03:52;;;;;;;5.18;2.75;;;;;;;22.98;35.80;100256.94;4976335;28;20026;-58
2023/10/18 10:06:24;;;;;;;5.68;2.70;;;;;;;23.41;35.66;100232.38;4976039;28;20077;-58
2023/10/18 10:11:36;;;;;;;4.40;2.65;;;;;;;24.45;34.81;100212.94;4960107;28;20134;-58
2023/10/18 10:14:03;;;;;;;7.82;2.80;;;;;;;24.52;34.65;100210.91;4959159;28;20019;-58
2023/10/18 10:16:31;;;;;;;5.72;2.47;;;;;;;24.40;34.96;100201.81;4958402;28;20430;-59
2023/10/18 10:18:58;;;;;;;3.95;3.20;;;;;;;24.41;35.12;100208.97;4958793;28;20085;-58
2023/10/18 10:21:27;;;;;;;7.72;3.15;;;;;;;24.51;35.40;100201.00;4942376;28;20122;-59
2023/10/18 10:23:57;;;;;;;3.80;2.40;;;;;;;24.50;34.95;100214.94;4958821;28;20043;-58
2023/10/18 10:26:28;;;;;;;6.78;2.78;;;;;;;24.67;34.49;100204.97;4975870;28;20575;-59
2023/10/18 10:31:53;;;;;;;4.68;2.60;;;;;;;24.65;35.11;100196.16;4976186;28;20031;-58
2023/10/18 10:34:26;;;;;;;6.32;2.38;;;;;;;24.20;34.75;100182.94;4975805;28;20031;-58
2023/10/18 10:36:52;;;;;;;7.45;2.72;;;;;;;23.74;35.31;100188.22;4942978;28;20069;-58
2023/10/18 10:39:23;;;;;;;4.38;2.60;;;;;;;23.45;35.70;100200.78;4975926;28;20035;-59
2023/10/18 10:41:49;;;;;;;3.85;2.28;;;;;;;23.17;35.65;100200.44;4958802;28;20042;-58
2023/10/18 10:44:22;;;;;;;4.68;2.88;;;;;;;23.01;35.90;100198.28;4958423;28;20051;-58
2023/10/18 10:46:50;;;;;;;4.82;2.40;;;;;;;22.90;36.32;100190.81;4975437;28;20568;-58
2023/10/18 10:49:48;;;;;;;4.38;2.63;;;;;;;23.38;35.71;100194.56;4958205;28;20031;-58
2023/10/18 10:52:18;;;;;;;4.20;2.80;;;;;;;24.26;33.96;100175.75;4942460;28;20045;-58
2023/10/18 10:54:53;;;;;;;7.68;3.28;;;;;;;24.68;34.11;100179.25;4942095;28;20089;-58
2023/10/18 10:57:19;;;;;;;4.63;2.88;;;;;;;25.02;33.97;100172.97;4957686;28;20042;-59
2023/10/18 10:59:56;;;;;;;3.83;2.25;;;;;;;25.40;33.33;100159.53;4958935;28;20441;-59
2023/10/18 11:02:24;;;;;;;5.28;2.83;;;;;;;25.64;33.65;100157.63;4959483;28;20486;-58
2023/10/18 11:04:50;;;;;;;5.82;2.65;;;;;;;25.93;33.27;100144.75;4959219;28;20112;-59
2023/10/18 11:07:23;;;;;;;8.75;3.05;;;;;;;26.09;33.44;100132.13;4958278;28;20050;-58
2023/10/18 11:09:50;;;;;;;4.85;2.75;;;;;;;26.26;33.54;100138.50;4960045;28;20411;-59
2023/10/18 11:12:23;;;;;;;6.75;2.40;;;;;;;26.49;32.83;100127.38;4975737;28;20035;-58
2023/10/18 11:14:52;;;;;;;7.50;3.00;;;;;;;26.72;33.07;100115.34;4959193;28;20054;-58
2023/10/18 11:17:18;;;;;;;5.60;2.67;;;;;;;26.78;32.75;100101.44;4975053;28;20470;-58
2023/10/18 11:19:44;;;;;;;4.80;2.58;;;;;;;26.87;32.21;100101.84;4941891;28;20047;-59
2023/10/18 11:22:14;;;;;;;7.22;2.88;;;;;;;26.82;33.04;100094.38;4975130;28;20034;-59
2023/10/18 11:24:40;;;;;;;8.05;2.83;;;;;;;26.78;32.77;100086.84;4957703;28;20429;-59
2023/10/18 11:27:09;;;;;;;5.90;2.70;;;;;;;26.74;32.59;100081.03;4957536;28;20063;-59
2023/10/18 11:29:41;;;;;;;5.35;2.50;;;;;;;26.59;32.27;100069.81;4957841;28;20046;-58
2023/10/18 11:32:07;;;;;;;10.10;2.83;;;;;;;26.49;32.55;100072.41;4974946;28;20031;-58
2023/10/18 11:34:40;;;;;;;5.47;3.05;;;;;;;26.47;33.04;100069.06;4974474;28;20114;-58
2023/10/18 11:37:08;;;;;;;;;;;;;;;26.29;32.92;100066.59;4974765;28;20034;-58
2023/10/18 11:39:33;;;;;;;6.10;2.50;;;;;;;25.94;33.33;100051.16;4941521;28;19922;-58
2023/10/18 11:41:59;;;;;;;3.40;2.75;;;;;;;25.61;33.43;100042.03;4974455;28;20039;-59
2023/10/18 11:44:28;;;;;;;5.78;2.70;;;;;;;25.41;33.98;100042.47;4943109;28;20107;-58
2023/10/18 11:47:00;;;;;;;7.25;2.75;;;;;;;25.56;33.50;100033.72;4977800;28;20066;-58
2023/10/18 11:49:39;;;;;;;3.65;2.53;;;;;;;25.67;33.01;100036.41;4977486;28;20042;-58
2023/10/18 11:52:05;;;;;;;5.55;2.25;;;;;;;25.69;33.49;100028.75;4942411;28;20049;-59
2023/10/18 11:54:34;;;;;;;7.18;2.83;;;;;;;25.79;33.65;100034.44;4957412;28;20043;-58
2023/10/18 11:57:01;;;;;;;4.90;2.28;;;;;;;25.82;33.18;100033.94;4941297;28;20042;-58
2023/10/18 11:59:31;;;;;;;4.55;2.30;;;;;;;25.61;33.62;100028.31;4956897;28;20054;-58
2023/10/18 12:02:04;;;;;;;8.38;2.17;;;;;;;25.43;33.50;100018.38;4957442;28;20119;-58
2023/10/18 12:04:37;;;;;;;9.10;3.08;;;;;;;25.21;33.86;100004.50;4973874;28;20031;-58
2023/10/18 12:07:03;;;;;;;7.78;2.55;;;;;;;25.02;34.11;100011.25;4974246;28;20031;-58
2023/10/18 12:09:31;;;;;;;3.95;2.15;;;;;;;24.83;34.40;100001.53;4974041;28;20086;-58
2023/10/18 12:11:58;;;;;;;2.45;2.08;;;;;;;24.61;33.77;99998.59;4957042;28;20039;-58
2023/10/18 12:14:23;;;;;;;5.10;2.13;;;;;;;24.46;34.29;99990.00;4973932;28;20066;-58
2023/10/18 12:16:54;;;;;;;4.18;2.58;;;;;;;24.40;34.33;99990.97;4956639;28;20047;-58
2023/10/18 12:19:20;;;;;;;7.88;2.70;;;;;;;24.35;34.34;99990.88;4974100;28;20039;-58
2023/10/18 12:21:54;;;;;;;5.90;2.08;;;;;;;24.23;34.57;99981.84;4973516;28;20037;-58
2023/10/18 12:24:21;;;;;;;6.45;2.60;;;;;;;24.11;34.97;99987.31;4973251;28;20556;-59
2023/10/18 12:26:53;;;;;;;6.07;2.90;;;;;;;24.05;35.53;99977.28;4947203;28;20054;-59